Terminal Aerodrome Forecast
Issued by NWS

Home | Current Version | Previous Version | Text Only | Print | Product List | Glossary On
Versions: 1 2 3 4 5 6 7 8 9 10 11 12 13 14 15 16 17 18 19 20 21 22 23 24 25 26 27 28 29 30
000
FTUS45 KGJT 302326
TAFEGE
TAF
KEGE 302326Z 3100/3124 27003KT P6SM VCSH OVC050
     FM310600 00000KT 3SM BR VCSH OVC015
     FM311500 00000KT 3SM -SN BR OVC015
     FM311800 00000KT 1SM -SN BR OVC010
     FM312200 18003KT 4SM -SN BR OVC015
      AMD LTD TO CLD VIS AND WIND 3106/3114=

USA.gov is the U.S. government's official web portal to all federal, state and local government web resources and services.